Temperance, Michigan
Current Conditions -  °F | °C
As of 4:35 AM on Monday 24 Nov 2014 (Local Time) from KDUH Reporting Station
Drizzle Drizzle  
Wind Chill: 57°   Ceiling: 1700
Heat Index: 57°   Visibility: 10mi
Dew Point: 52°   Wind: 20mph
Humidity: 82%   Direction: 230°SW
Pressure: 29.15"   Gusts: 33mph
Location:  41.78°N, 83.57°W
Report Text: KDUH 240935Z AUTO 23017G29KT 10SM -DZ OVC017 14/11 A2915 RMK AO2
Loading
Personal Weather Stations






























Interactive Weather Map New forecast layout! Learn more

10-Day Weather Forecast

Advertisements
Track Severe Weather on mobile